Time;durP1;ratioP1;P1;durP2;ratioP2;P2;SDS_P1;SDS_P2;PMS_P1;PMS_P2;Temp;Humidity;BMP_temperature;BMP_pressure;BME280_temperature;BME280_humidity;BME280_pressure;Samples;Min_cycle;Max_cycle;Signal;HPM_P1;HPM_P2
2023/01/16 00:02:12;;;;;;;3.13;1.00;;;;;;;5.63;100.00;99326.94;4930877;29;20402;-80
2023/01/16 00:04:37;;;;;;;2.55;0.80;;;;;;;5.55;100.00;99311.28;4945433;29;20101;-79
2023/01/16 00:07:03;;;;;;;4.53;0.82;;;;;;;5.56;100.00;99320.28;4912939;28;20047;-81
2023/01/16 00:09:28;;;;;;;6.22;1.08;;;;;;;5.68;100.00;99313.84;4944687;29;20035;-80
2023/01/16 00:11:54;;;;;;;6.85;1.00;;;;;;;5.62;100.00;99304.34;4961368;29;20067;-80
2023/01/16 00:14:21;;;;;;;6.80;1.60;;;;;;;5.58;100.00;99297.47;4911096;29;20495;-81
2023/01/16 00:16:47;;;;;;;5.38;0.95;;;;;;;5.65;100.00;99297.81;4953647;28;20043;-81
2023/01/16 00:19:13;;;;;;;8.00;1.25;;;;;;;5.53;100.00;99296.97;4965687;28;20035;-80
2023/01/16 00:21:39;;;;;;;4.65;0.80;;;;;;;5.48;100.00;99291.09;4945898;29;20462;-80
2023/01/16 00:24:06;;;;;;;2.95;0.88;;;;;;;5.51;100.00;99286.25;4926944;29;20039;-80
2023/01/16 00:26:32;;;;;;;6.65;1.10;;;;;;;5.47;100.00;99273.91;4943155;29;20039;-81
2023/01/16 00:28:57;;;;;;;8.95;1.10;;;;;;;5.53;100.00;99286.13;4929581;29;20031;-80
2023/01/16 00:31:24;;;;;;;6.10;0.77;;;;;;;5.46;100.00;99271.31;4964217;28;20091;-81
2023/01/16 00:33:50;;;;;;;7.40;1.10;;;;;;;5.56;100.00;99285.88;4963738;28;20026;-81
2023/01/16 00:36:16;;;;;;;3.80;1.10;;;;;;;5.44;100.00;99276.03;4942414;29;20489;-80
2023/01/16 00:38:41;;;;;;;5.30;1.17;;;;;;;5.43;100.00;99252.59;4944077;29;20398;-81
2023/01/16 00:41:07;;;;;;;11.40;1.42;;;;;;;5.44;100.00;99273.31;4924818;29;20613;-80
2023/01/16 00:43:33;;;;;;;5.78;1.10;;;;;;;5.51;100.00;99267.25;4925646;28;20486;-81
2023/01/16 00:45:59;;;;;;;8.07;1.55;;;;;;;5.48;100.00;99261.22;4958914;29;20099;-80
2023/01/16 00:48:24;;;;;;;3.42;0.85;;;;;;;5.40;100.00;99258.28;4943217;29;20117;-81
2023/01/16 00:50:50;;;;;;;14.40;1.50;;;;;;;5.50;100.00;99253.81;4960314;28;20046;-80
2023/01/16 00:53:16;;;;;;;4.38;1.13;;;;;;;5.40;100.00;99258.28;4921332;29;20034;-80
2023/01/16 00:55:41;;;;;;;11.70;1.40;;;;;;;5.26;100.00;99222.31;4966593;28;20028;-81
2023/01/16 00:58:10;;;;;;;8.98;1.20;;;;;;;5.39;100.00;99251.97;4959732;29;20455;-81
2023/01/16 01:00:36;;;;;;;9.40;1.33;;;;;;;5.41;100.00;99249.13;4929344;29;20047;-80
2023/01/16 01:03:04;;;;;;;4.07;1.23;;;;;;;5.45;100.00;99248.75;4973742;28;20035;-80
2023/01/16 01:05:29;;;;;;;1.52;0.90;;;;;;;5.43;100.00;99239.88;4959880;29;20042;-80
2023/01/16 01:07:55;;;;;;;7.95;1.25;;;;;;;5.40;100.00;99231.16;4941295;29;20035;-82
2023/01/16 01:10:20;;;;;;;8.43;1.30;;;;;;;5.42;100.00;99229.16;4954133;28;20397;-80
2023/01/16 01:12:46;;;;;;;9.60;1.98;;;;;;;5.50;100.00;99222.09;4962214;28;20470;-80
2023/01/16 01:15:11;;;;;;;10.93;1.73;;;;;;;5.29;100.00;99222.03;4932690;29;20052;-80
2023/01/16 01:17:37;;;;;;;12.32;1.23;;;;;;;5.16;100.00;99188.78;4948627;28;20034;-80
2023/01/16 01:20:03;;;;;;;13.50;1.38;;;;;;;5.29;100.00;99216.59;4973949;28;20174;-80
2023/01/16 01:22:28;;;;;;;5.93;1.33;;;;;;;5.28;100.00;99200.44;4976069;28;20387;-80
2023/01/16 01:24:55;;;;;;;4.43;0.82;;;;;;;5.03;100.00;99205.22;4937868;29;20042;-81
2023/01/16 01:27:21;;;;;;;8.88;1.10;;;;;;;5.10;100.00;99194.72;4941011;29;20554;-80
2023/01/16 01:29:46;;;;;;;11.50;1.10;;;;;;;5.14;100.00;99205.19;4923604;29;20027;-81
2023/01/16 01:32:12;;;;;;;7.30;1.20;;;;;;;5.12;100.00;99204.47;4937351;29;20039;-80
2023/01/16 01:34:37;;;;;;;15.65;1.25;;;;;;;5.06;100.00;99185.97;4948022;29;20114;-80
2023/01/16 01:37:05;;;;;;;5.63;1.08;;;;;;;5.12;100.00;99181.91;4910380;29;20032;-81
2023/01/16 01:39:31;;;;;;;8.60;0.98;;;;;;;5.03;100.00;99161.81;4943265;29;20050;-80
2023/01/16 01:44:49;;;;;;;3.45;0.73;;;;;;;5.15;100.00;99160.81;4958956;28;20470;-81
2023/01/16 01:47:16;;;;;;;12.82;1.20;;;;;;;5.17;100.00;99159.81;4959609;28;20164;-80
2023/01/16 01:49:42;;;;;;;10.73;1.00;;;;;;;5.08;100.00;99147.88;4954046;29;20045;-81
2023/01/16 01:52:09;;;;;;;6.10;1.58;;;;;;;5.00;100.00;99148.53;4942565;29;20086;-81
2023/01/16 01:54:43;;;;;;;11.00;0.93;;;;;;;4.91;100.00;99142.00;4942727;29;20038;-81
2023/01/16 01:57:11;;;;;;;3.55;0.95;;;;;;;4.89;100.00;99138.56;4959264;28;20062;-81
2023/01/16 01:59:46;;;;;;;5.90;0.90;;;;;;;4.96;100.00;99123.50;4929369;29;20483;-80
2023/01/16 02:02:18;;;;;;;3.28;0.60;;;;;;;4.91;100.00;99124.88;4951784;29;20031;-81
2023/01/16 02:04:46;;;;;;;6.07;0.90;;;;;;;4.82;100.00;99109.38;4926473;29;20110;-81
2023/01/16 02:07:15;;;;;;;10.40;1.10;;;;;;;4.82;100.00;99109.38;4959291;29;20031;-81
2023/01/16 02:09:41;;;;;;;4.65;1.08;;;;;;;4.85;100.00;99099.13;4941935;29;20031;-81
2023/01/16 02:12:12;;;;;;;10.80;1.05;;;;;;;4.75;100.00;99109.88;4959280;28;20042;-80
2023/01/16 02:14:41;;;;;;;7.45;1.25;;;;;;;4.68;100.00;99100.56;4942505;29;20434;-80
2023/01/16 02:20:22;;;;;;;4.90;1.00;;;;;;;4.75;100.00;99092.78;4974683;28;20095;-81
2023/01/16 02:22:59;;;;;;;10.98;1.40;;;;;;;4.70;100.00;99092.28;4955908;28;20066;-81
2023/01/16 02:25:46;;;;;;;4.72;1.08;;;;;;;4.71;100.00;99075.91;4925809;29;20051;-81
2023/01/16 02:28:31;;;;;;;7.20;1.55;;;;;;;4.64;100.00;99066.56;4937694;29;20497;-80
2023/01/16 02:31:14;;;;;;;8.35;1.23;;;;;;;4.66;100.00;99058.31;4957479;28;20035;-80
2023/01/16 02:34:11;;;;;;;7.80;1.20;;;;;;;4.67;100.00;99055.44;4957021;28;20057;-80
2023/01/16 02:36:46;;;;;;;8.55;1.60;;;;;;;4.60;100.00;99059.66;4972194;28;20174;-80
2023/01/16 02:39:14;;;;;;;16.90;1.55;;;;;;;4.60;100.00;99048.84;4959029;29;20031;-80
2023/01/16 02:41:49;;;;;;;9.27;1.63;;;;;;;4.57;100.00;99033.66;4940781;29;20106;-80
2023/01/16 02:44:30;;;;;;;12.90;1.98;;;;;;;4.49;100.00;99024.47;4936556;29;20043;-80
2023/01/16 02:47:17;;;;;;;6.05;1.35;;;;;;;4.35;100.00;98998.56;4943350;29;20505;-80
2023/01/16 02:49:56;;;;;;;9.15;1.40;;;;;;;4.45;100.00;98996.78;4936785;29;20114;-81
2023/01/16 02:52:31;;;;;;;17.63;1.58;;;;;;;4.48;100.00;99001.94;4950054;29;20126;-82
2023/01/16 02:55:03;;;;;;;10.18;1.60;;;;;;;4.44;100.00;98989.63;4942228;29;20054;-80
2023/01/16 02:57:40;;;;;;;14.07;1.67;;;;;;;4.47;100.00;98981.25;4944202;28;20118;-80
2023/01/16 03:00:07;;;;;;;13.73;1.60;;;;;;;4.52;100.00;98973.59;4940000;28;20031;-80
2023/01/16 03:02:32;;;;;;;9.80;1.50;;;;;;;4.47;100.00;98966.84;4930767;29;20042;-80
2023/01/16 03:04:58;;;;;;;6.88;2.63;;;;;;;4.34;100.00;98950.75;4956155;28;20035;-80
2023/01/16 03:07:44;;;;;;;7.57;1.55;;;;;;;4.49;100.00;98957.59;4958262;29;20398;-80
2023/01/16 03:10:28;;;;;;;6.55;1.30;;;;;;;4.35;100.00;98952.50;4936200;29;20038;-80
2023/01/16 03:13:22;;;;;;;7.97;1.70;;;;;;;4.37;100.00;98942.38;4954528;29;20023;-80
2023/01/16 03:16:01;;;;;;;8.93;1.15;;;;;;;4.37;100.00;98931.53;4963257;28;20074;-80
2023/01/16 03:18:32;;;;;;;6.88;1.50;;;;;;;4.39;100.00;98935.84;4939910;29;20039;-81
2023/01/16 03:21:33;;;;;;;8.23;1.48;;;;;;;4.43;100.00;98939.16;4939401;29;20131;-80
2023/01/16 03:24:17;;;;;;;11.05;1.55;;;;;;;4.49;100.00;98918.78;4930886;29;20039;-80
2023/01/16 03:26:47;;;;;;;13.05;2.28;;;;;;;4.46;100.00;98914.50;4946663;29;20512;-80
2023/01/16 03:29:36;;;;;;;10.30;2.00;;;;;;;4.46;100.00;98911.81;4960217;28;20035;-80
2023/01/16 03:32:09;;;;;;;7.25;1.40;;;;;;;4.44;100.00;98907.50;4967088;28;20027;-80
2023/01/16 03:34:53;;;;;;;11.20;1.38;;;;;;;4.48;100.00;98904.41;4955538;29;20024;-80
2023/01/16 03:37:27;;;;;;;8.90;1.23;;;;;;;4.55;100.00;98886.59;4950858;29;20478;-80
2023/01/16 03:40:03;;;;;;;8.57;1.08;;;;;;;4.58;100.00;98878.22;4939468;29;20386;-80
2023/01/16 03:42:50;;;;;;;24.17;2.05;;;;;;;4.49;100.00;98868.16;4930058;29;20036;-80
2023/01/16 03:45:30;;;;;;;2.92;0.95;;;;;;;4.59;100.00;98855.56;4927539;29;20075;-79
2023/01/16 03:48:22;;;;;;;7.00;1.40;;;;;;;4.52;100.00;98835.38;4927300;29;20478;-80
2023/01/16 03:50:52;;;;;;;12.80;1.23;;;;;;;4.53;100.00;98837.09;4959575;29;20027;-81
2023/01/16 03:53:23;;;;;;;8.30;1.50;;;;;;;4.58;100.00;98845.69;4958253;28;20027;-80
2023/01/16 03:56:04;;;;;;;11.15;1.85;;;;;;;4.62;100.00;98840.00;4949826;29;20067;-80
2023/01/16 03:58:39;;;;;;;9.98;1.50;;;;;;;4.58;100.00;98824.00;4957372;28;20539;-80
2023/01/16 04:01:30;;;;;;;9.68;1.98;;;;;;;4.64;100.00;98817.22;4925089;29;20040;-80
2023/01/16 04:04:01;;;;;;;9.63;1.63;;;;;;;4.66;100.00;98793.53;4921788;29;20123;-80
2023/01/16 04:06:45;;;;;;;12.70;1.45;;;;;;;4.66;100.00;98789.97;4924895;29;20043;-80
2023/01/16 04:09:21;;;;;;;9.75;1.50;;;;;;;4.53;100.00;98776.66;4943410;28;20028;-80
2023/01/16 04:11:50;;;;;;;8.55;1.58;;;;;;;4.65;100.00;98769.28;4936594;29;20064;-80
2023/01/16 04:14:19;;;;;;;8.43;1.50;;;;;;;4.68;100.00;98769.00;4926112;29;20023;-80
2023/01/16 04:16:45;;;;;;;14.65;1.88;;;;;;;4.70;100.00;98751.59;4959621;29;20042;-80
2023/01/16 04:19:13;;;;;;;11.75;2.00;;;;;;;4.83;100.00;98751.38;4927842;29;20125;-80
2023/01/16 04:21:43;;;;;;;3.60;1.10;;;;;;;4.79;100.00;98739.94;4940431;29;20047;-80
2023/01/16 04:24:08;;;;;;;13.55;1.98;;;;;;;4.83;100.00;98739.66;4956000;28;20032;-80
2023/01/16 04:26:34;;;;;;;10.23;1.52;;;;;;;4.84;100.00;98728.69;4965666;28;20039;-79
2023/01/16 04:28:59;;;;;;;3.00;1.23;;;;;;;4.90;100.00;98725.44;4927423;29;20038;-79
2023/01/16 04:31:27;;;;;;;9.88;1.00;;;;;;;4.85;100.00;98706.00;4943283;28;20047;-80
2023/01/16 04:33:52;;;;;;;7.78;1.63;;;;;;;4.97;100.00;98694.03;4926616;29;20031;-80
2023/01/16 04:36:18;;;;;;;11.55;0.90;;;;;;;4.87;100.00;98695.00;4926574;28;20050;-80
2023/01/16 04:38:43;;;;;;;7.25;0.98;;;;;;;4.88;100.00;98684.03;4943050;29;20544;-80
2023/01/16 04:41:09;;;;;;;8.57;1.17;;;;;;;4.92;100.00;98680.06;4941581;29;20031;-80
2023/01/16 04:43:34;;;;;;;3.50;1.00;;;;;;;4.89;100.00;98664.06;4937195;29;20063;-79
2023/01/16 04:46:00;;;;;;;9.82;1.30;;;;;;;4.78;100.00;98656.03;4954175;29;20478;-80
2023/01/16 04:48:25;;;;;;;10.35;0.90;;;;;;;4.93;100.00;98643.78;4940673;29;20046;-80
2023/01/16 04:50:50;;;;;;;11.73;1.55;;;;;;;5.04;100.00;98640.09;4909835;29;20047;-81
2023/01/16 04:53:16;;;;;;;10.88;1.10;;;;;;;4.95;100.00;98628.25;4941560;29;20390;-80
2023/01/16 04:55:42;;;;;;;13.40;1.80;;;;;;;5.01;100.00;98615.97;4936588;29;20106;-80
2023/01/16 04:58:07;;;;;;;10.70;0.98;;;;;;;5.06;100.00;98605.56;4943376;29;20063;-80
2023/01/16 05:00:32;;;;;;;10.13;0.90;;;;;;;5.15;100.00;98595.72;4910670;29;20038;-80
2023/01/16 05:02:58;;;;;;;8.23;0.98;;;;;;;5.16;100.00;98589.28;4910763;29;20035;-80
2023/01/16 05:05:24;;;;;;;7.50;0.73;;;;;;;5.12;100.00;98583.28;4941050;29;20187;-80
2023/01/16 05:08:15;;;;;;;9.02;1.00;;;;;;;5.08;100.00;98573.75;4925419;29;20059;-80
2023/01/16 05:10:35;;;;;;;7.78;1.20;;;;;;;4.92;100.00;98540.88;4944743;29;20151;-80
2023/01/16 05:13:00;;;;;;;6.93;1.20;;;;;;;5.10;100.00;98563.59;4958079;29;20118;-79
2023/01/16 05:15:26;;;;;;;10.57;1.40;;;;;;;5.13;100.00;98559.72;4925028;29;20367;-79
2023/01/16 05:17:52;;;;;;;5.68;1.20;;;;;;;5.21;100.00;98542.75;4956758;28;20039;-79
2023/01/16 05:20:18;;;;;;;3.38;0.80;;;;;;;5.24;100.00;98540.59;4924696;28;20155;-79
2023/01/16 05:22:43;;;;;;;14.93;1.95;;;;;;;5.22;100.00;98529.03;4924726;29;20067;-79
2023/01/16 05:25:09;;;;;;;4.57;0.85;;;;;;;5.22;100.00;98528.19;4946088;29;20042;-79
2023/01/16 05:27:34;;;;;;;8.15;0.75;;;;;;;5.22;100.00;98520.91;4961484;28;20043;-80
2023/01/16 05:29:59;;;;;;;5.18;0.70;;;;;;;5.23;100.00;98514.47;4923134;29;20094;-80
2023/01/16 05:32:25;;;;;;;3.53;0.70;;;;;;;5.23;100.00;98509.06;4923549;29;20123;-81
2023/01/16 05:34:50;;;;;;;3.42;0.75;;;;;;;5.17;100.00;98501.50;4935733;29;20034;-80
2023/01/16 05:37:16;;;;;;;8.27;0.82;;;;;;;5.16;100.00;98488.91;4908121;29;20055;-80
2023/01/16 05:39:41;;;;;;;7.85;0.93;;;;;;;5.19;100.00;98476.94;4951960;28;20989;-79
2023/01/16 05:42:20;;;;;;;12.32;0.90;;;;;;;5.24;100.00;98467.34;4914746;28;20422;-79
2023/01/16 05:44:48;;;;;;;2.85;0.60;;;;;;;5.21;100.00;98464.06;4924532;29;20058;-78
2023/01/16 05:47:13;;;;;;;4.28;0.75;;;;;;;5.23;100.00;98456.63;4934576;29;20031;-80
2023/01/16 05:49:39;;;;;;;4.47;0.90;;;;;;;5.33;100.00;98454.78;4936958;29;20091;-78
2023/01/16 05:52:04;;;;;;;7.50;0.85;;;;;;;5.23;100.00;98438.53;4935169;29;20043;-79
2023/01/16 05:54:30;;;;;;;7.68;1.30;;;;;;;5.26;100.00;98431.94;4947612;28;20067;-80
2023/01/16 05:56:55;;;;;;;3.58;0.80;;;;;;;5.32;100.00;98424.03;4903989;29;20494;-79
2023/01/16 05:59:20;;;;;;;6.95;0.95;;;;;;;5.26;100.00;98421.06;4942618;28;20041;-79
2023/01/16 06:01:46;;;;;;;5.00;1.15;;;;;;;5.31;100.00;98406.09;4942013;29;20133;-79
2023/01/16 06:04:11;;;;;;;4.20;0.70;;;;;;;5.22;100.00;98398.81;4955337;28;20409;-79
2023/01/16 06:06:37;;;;;;;5.18;0.52;;;;;;;5.14;100.00;98396.00;4925936;28;20062;-79
2023/01/16 06:09:02;;;;;;;2.42;0.40;;;;;;;5.15;100.00;98373.31;4972236;28;20420;-79
2023/01/16 06:11:28;;;;;;;2.05;0.50;;;;;;;5.22;100.00;98368.97;4939294;29;20059;-80
2023/01/16 06:13:53;;;;;;;4.93;0.75;;;;;;;5.20;100.00;98364.69;4938883;29;20065;-79
2023/01/16 06:16:18;;;;;;;4.32;0.60;;;;;;;5.26;100.00;98369.53;4922833;28;20134;-79
2023/01/16 06:18:44;;;;;;;7.90;0.57;;;;;;;5.20;100.00;98364.69;4939414;29;20089;-79
2023/01/16 06:21:09;;;;;;;8.57;1.30;;;;;;;5.06;100.00;98357.91;4937777;28;20073;-79
2023/01/16 06:23:35;;;;;;;2.55;0.70;;;;;;;5.15;100.00;98349.75;4921018;28;20493;-79
2023/01/16 06:26:02;;;;;;;2.20;0.43;;;;;;;5.09;100.00;98355.75;4953868;28;20047;-79
2023/01/16 06:28:28;;;;;;;5.03;0.80;;;;;;;5.04;100.00;98338.22;4951825;28;21122;-78
2023/01/16 06:30:53;;;;;;;1.95;0.60;;;;;;;4.98;100.00;98336.94;4954724;29;20027;-79
2023/01/16 06:33:19;;;;;;;6.80;0.70;;;;;;;4.98;100.00;98331.53;4939342;29;20081;-79
2023/01/16 06:35:44;;;;;;;4.90;0.57;;;;;;;4.91;100.00;98333.13;4934722;28;20059;-79
2023/01/16 06:38:09;;;;;;;5.20;0.70;;;;;;;4.99;100.00;98329.69;4937327;29;20028;-78
2023/01/16 06:40:35;;;;;;;5.25;0.95;;;;;;;4.97;100.00;98321.72;4922699;29;20039;-78
2023/01/16 06:43:00;;;;;;;3.28;0.60;;;;;;;4.83;100.00;98311.34;4921930;29;20136;-78
2023/01/16 06:45:26;;;;;;;2.80;0.60;;;;;;;4.74;100.00;98297.66;4923092;29;20043;-78
2023/01/16 06:47:52;;;;;;;12.77;0.80;;;;;;;4.85;100.00;98302.03;4948525;28;20549;-78
2023/01/16 06:50:18;;;;;;;4.35;0.88;;;;;;;4.92;100.00;98283.31;4954572;28;20513;-77
2023/01/16 06:52:43;;;;;;;1.85;0.70;;;;;;;4.91;100.00;98274.34;4922641;29;20036;-78
2023/01/16 06:55:09;;;;;;;4.03;0.63;;;;;;;4.90;100.00;98261.81;4937942;28;20047;-77
2023/01/16 06:57:36;;;;;;;5.10;0.80;;;;;;;4.80;100.00;98250.13;4941634;28;20045;-77
2023/01/16 07:00:03;;;;;;;4.05;0.82;;;;;;;4.92;100.00;98232.69;4975649;28;20043;-77
2023/01/16 07:02:29;;;;;;;2.72;0.80;;;;;;;4.91;100.00;98222.81;4933442;28;20059;-77
2023/01/16 07:04:54;;;;;;;5.93;1.05;;;;;;;4.85;100.00;98217.16;4961272;28;20067;-78
2023/01/16 07:07:19;;;;;;;10.27;0.90;;;;;;;4.77;100.00;98199.81;4930398;28;20035;-78
2023/01/16 07:09:45;;;;;;;6.63;0.80;;;;;;;4.71;100.00;98194.97;4930393;28;20085;-78
2023/01/16 07:12:11;;;;;;;9.27;1.00;;;;;;;4.65;100.00;98189.31;4961780;28;20043;-77
2023/01/16 07:22:48;;;;;;;9.18;1.15;;;;;;;4.95;100.00;98133.91;4958620;28;20146;-78
2023/01/16 07:25:18;;;;;;;10.93;1.38;;;;;;;4.94;100.00;98119.50;4928497;29;20594;-78
2023/01/16 07:27:47;;;;;;;2.92;0.82;;;;;;;4.89;100.00;98113.69;4942181;28;20035;-78
2023/01/16 07:30:14;;;;;;;4.78;1.40;;;;;;;4.98;100.00;98120.03;4948625;28;20038;-78
2023/01/16 07:32:40;;;;;;;6.82;1.40;;;;;;;5.00;100.00;98111.75;4937266;29;20039;-78
2023/01/16 07:35:07;;;;;;;3.92;0.98;;;;;;;4.84;100.00;98101.59;4960657;29;20080;-78
2023/01/16 07:37:32;;;;;;;2.95;1.35;;;;;;;4.70;100.00;98102.97;4942445;29;20043;-78
2023/01/16 07:39:58;;;;;;;10.00;1.35;;;;;;;4.78;100.00;98092.22;4953611;28;20106;-78
2023/01/16 07:42:23;;;;;;;10.43;1.50;;;;;;;4.72;100.00;98084.69;4918342;29;20044;-78
2023/01/16 07:44:49;;;;;;;2.80;1.20;;;;;;;4.65;100.00;98054.66;4959977;28;20038;-79
2023/01/16 07:47:14;;;;;;;5.90;1.13;;;;;;;4.93;100.00;98063.56;4946362;29;20082;-78
2023/01/16 07:49:40;;;;;;;7.72;1.10;;;;;;;4.99;100.00;98063.97;4942419;29;20055;-78
2023/01/16 07:52:05;;;;;;;4.82;1.52;;;;;;;5.07;100.00;98062.19;4957082;28;20510;-79
2023/01/16 07:54:30;;;;;;;7.82;1.33;;;;;;;4.98;100.00;98049.53;4938179;28;20155;-78
2023/01/16 07:56:56;;;;;;;5.50;1.00;;;;;;;4.95;100.00;98045.31;4956463;29;20047;-77
2023/01/16 07:59:21;;;;;;;4.28;1.13;;;;;;;4.99;100.00;98043.13;4944140;29;20039;-78
2023/01/16 08:01:47;;;;;;;6.03;1.30;;;;;;;4.95;100.00;98026.31;4945415;28;20482;-79
2023/01/16 08:04:12;;;;;;;2.92;1.10;;;;;;;5.05;100.00;98026.25;4915990;29;20490;-78
2023/01/16 08:06:43;;;;;;;5.80;1.40;;;;;;;5.10;100.00;98014.91;4935266;29;20081;-79
2023/01/16 08:09:09;;;;;;;9.60;1.83;;;;;;;5.11;100.00;98001.19;4926948;28;20039;-79
2023/01/16 08:11:35;;;;;;;10.60;1.95;;;;;;;5.21;100.00;98003.78;4929843;29;20043;-78
2023/01/16 08:14:01;;;;;;;7.53;1.70;;;;;;;5.30;100.00;98010.16;4954199;28;20466;-79
2023/01/16 08:16:26;;;;;;;1.52;0.65;;;;;;;5.20;100.00;97993.09;4951011;28;20057;-78
2023/01/16 08:18:52;;;;;;;15.07;1.10;;;;;;;5.25;100.00;97983.50;4960435;28;20043;-78
2023/01/16 08:21:17;;;;;;;3.22;1.10;;;;;;;5.30;100.00;97978.44;4948561;28;20463;-79
2023/01/16 08:23:43;;;;;;;14.73;1.27;;;;;;;5.16;100.00;97949.19;4949718;29;20466;-80
2023/01/16 08:26:09;;;;;;;2.78;0.77;;;;;;;5.17;100.00;97975.31;4949141;28;20035;-79
2023/01/16 08:28:35;;;;;;;4.03;0.77;;;;;;;5.29;100.00;97957.75;4941885;29;20482;-79
2023/01/16 08:31:11;;;;;;;6.35;1.05;;;;;;;5.36;100.00;97949.81;4950517;28;20101;-79
2023/01/16 08:33:37;;;;;;;8.98;1.40;;;;;;;5.44;100.00;97955.28;4955288;28;20042;-79
2023/01/16 08:36:07;;;;;;;5.25;1.15;;;;;;;5.30;100.00;97937.75;4951339;28;20042;-80
2023/01/16 08:38:33;;;;;;;3.90;0.90;;;;;;;4.88;100.00;97938.47;4962431;28;20031;-79
2023/01/16 08:40:59;;;;;;;10.45;1.42;;;;;;;5.28;100.00;97928.06;4956559;29;20042;-79
2023/01/16 08:51:49;;;;;;;7.35;1.20;;;;;;;5.38;100.00;97920.69;4965996;28;20027;-80
2023/01/16 08:54:15;;;;;;;3.70;1.20;;;;;;;5.37;100.00;97920.84;4946537;29;20123;-79
2023/01/16 08:56:42;;;;;;;2.50;0.75;;;;;;;5.30;100.00;97904.34;4921406;29;20566;-79
2023/01/16 08:59:10;;;;;;;5.93;1.02;;;;;;;5.14;100.00;97908.66;4945912;29;20491;-79
2023/01/16 09:01:36;;;;;;;2.95;0.80;;;;;;;5.14;100.00;97907.81;4944658;28;20384;-79
2023/01/16 09:04:02;;;;;;;7.45;0.85;;;;;;;5.23;100.00;97912.28;4957708;29;20031;-79
2023/01/16 09:06:27;;;;;;;1.90;0.57;;;;;;;5.31;100.00;97904.19;4958493;29;20035;-79
2023/01/16 09:08:53;;;;;;;3.58;0.73;;;;;;;5.20;100.00;97901.75;4935338;28;20111;-80
2023/01/16 09:14:02;;;;;;;2.15;0.50;;;;;;;5.23;100.00;97904.16;4942355;29;20442;-79
2023/01/16 09:16:28;;;;;;;3.08;0.60;;;;;;;5.23;100.00;97890.59;4941099;28;20049;-79
2023/01/16 09:18:53;;;;;;;4.90;0.68;;;;;;;5.23;100.00;97890.59;4976817;28;20074;-79
2023/01/16 09:21:19;;;;;;;6.20;0.77;;;;;;;5.31;100.00;97909.63;4973383;28;20051;-79
2023/01/16 09:23:45;;;;;;;2.33;0.50;;;;;;;5.27;100.00;97883.81;4939217;29;20027;-79
2023/01/16 09:26:11;;;;;;;1.63;0.60;;;;;;;5.15;100.00;97894.09;4954121;29;20043;-78
2023/01/16 09:28:37;;;;;;;2.10;0.57;;;;;;;5.20;100.00;97892.75;4948502;29;20050;-78
2023/01/16 09:31:02;;;;;;;3.28;0.52;;;;;;;5.21;100.00;97886.31;4943434;29;20043;-79
2023/01/16 09:33:28;;;;;;;1.02;0.55;;;;;;;5.25;100.00;97875.00;4952583;28;20446;-79
2023/01/16 09:35:53;;;;;;;3.60;0.68;;;;;;;5.26;100.00;97868.56;4955335;28;20062;-78
2023/01/16 09:38:20;;;;;;;1.25;0.80;;;;;;;5.36;100.00;97873.00;4910697;29;20036;-78
2023/01/16 09:40:49;;;;;;;4.57;0.60;;;;;;;5.40;100.00;97874.41;4925742;29;20027;-78
2023/01/16 09:43:38;;;;;;;1.27;0.50;;;;;;;5.30;100.00;97861.78;4960426;28;20046;-79
2023/01/16 09:46:15;;;;;;;2.08;0.60;;;;;;;5.25;100.00;97860.59;4976343;28;20042;-78
2023/01/16 09:48:43;;;;;;;0.80;0.50;;;;;;;5.22;100.00;97860.91;4955960;28;20047;-78
2023/01/16 09:51:23;;;;;;;1.65;0.55;;;;;;;5.29;100.00;97843.81;4957922;29;20035;-78
2023/01/16 09:59:30;;;;;;;3.55;0.80;;;;;;;5.53;100.00;97847.66;4983788;28;20051;-78
2023/01/16 10:02:04;;;;;;;0.60;0.52;;;;;;;5.40;100.00;97845.41;4956172;29;20070;-78
2023/01/16 10:04:31;;;;;;;3.80;0.85;;;;;;;5.44;100.00;97838.59;4926147;29;20035;-78
2023/01/16 10:07:06;;;;;;;2.88;0.70;;;;;;;5.52;100.00;97835.09;4944743;28;20114;-78
2023/01/16 10:09:36;;;;;;;4.30;0.57;;;;;;;5.60;100.00;97839.69;4978558;28;20073;-77
2023/01/16 10:12:07;;;;;;;0.80;0.68;;;;;;;5.69;100.00;97826.00;4972707;28;20039;-78
2023/01/16 10:15:01;;;;;;;0.50;0.43;;;;;;;5.68;100.00;97820.72;4957153;28;20881;-78
2023/01/16 10:17:48;;;;;;;0.43;0.40;;;;;;;5.55;100.00;97809.50;4952482;28;20075;-77
2023/01/16 10:20:58;;;;;;;1.98;0.60;;;;;;;5.55;100.00;97807.63;4947161;29;20033;-78
2023/01/16 10:23:38;;;;;;;1.88;0.40;;;;;;;5.65;100.00;97802.06;4969017;28;20086;-79
2023/01/16 10:26:13;;;;;;;0.60;0.30;;;;;;;5.59;100.00;97800.00;4966821;28;20061;-78
2023/01/16 10:28:54;;;;;;;0.63;0.50;;;;;;;5.61;100.00;97793.41;4955994;28;20035;-80
2023/01/16 10:31:28;;;;;;;0.52;0.50;;;;;;;5.60;100.00;97797.13;4954272;29;20051;-78
2023/01/16 10:34:00;;;;;;;2.05;0.30;;;;;;;5.66;100.00;97782.06;4937470;29;20033;-77
2023/01/16 10:36:34;;;;;;;0.32;0.32;;;;;;;5.80;100.00;97784.09;4938910;28;20056;-81
2023/01/16 10:39:00;;;;;;;0.45;0.40;;;;;;;5.88;100.00;97778.66;4935175;28;20071;-80
2023/01/16 10:50:28;;;;;;;1.52;0.60;;;;;;;5.93;100.00;97758.31;4937846;28;20046;-78
2023/01/16 10:52:53;;;;;;;3.42;0.80;;;;;;;5.89;100.00;97749.66;4954776;28;20123;-78
2023/01/16 10:55:19;;;;;;;1.95;0.70;;;;;;;5.94;100.00;97750.00;4957288;28;20031;-78
2023/01/16 10:57:51;;;;;;;2.60;0.88;;;;;;;6.05;100.00;97743.41;4969920;28;20027;-78
2023/01/16 11:00:22;;;;;;;2.05;0.60;;;;;;;6.09;100.00;97733.06;4931110;29;20038;-78
2023/01/16 11:02:48;;;;;;;1.58;0.90;;;;;;;5.94;100.00;97717.41;4958116;28;20038;-79
2023/01/16 11:05:39;;;;;;;1.25;0.75;;;;;;;5.79;100.00;97722.69;4935609;28;20039;-79
2023/01/16 11:08:09;;;;;;;2.50;0.60;;;;;;;5.85;100.00;97710.28;4937839;29;20047;-80
2023/01/16 11:10:35;;;;;;;4.20;0.95;;;;;;;5.89;100.00;97717.94;4954625;28;20114;-79
2023/01/16 11:18:49;;;;;;;2.72;0.80;;;;;;;5.97;100.00;97695.41;4955875;29;20035;-79
2023/01/16 11:21:43;;;;;;;1.30;0.70;;;;;;;6.00;100.00;97681.47;4956299;28;20537;-79
2023/01/16 11:24:18;;;;;;;3.20;0.70;;;;;;;6.02;100.00;97667.72;4953504;28;20090;-79
2023/01/16 11:26:50;;;;;;;0.70;0.60;;;;;;;5.91;100.00;97655.31;4935885;29;20042;-79
2023/01/16 11:29:17;;;;;;;0.93;0.63;;;;;;;6.04;100.00;97652.94;4920028;29;20094;-79
2023/01/16 11:31:53;;;;;;;1.48;0.95;;;;;;;6.07;100.00;97644.44;4941171;29;20054;-80
2023/01/16 11:34:18;;;;;;;0.50;0.50;;;;;;;5.99;100.00;97636.31;4921538;29;20032;-79
2023/01/16 11:36:44;;;;;;;2.10;0.63;;;;;;;6.16;100.00;97636.28;4935870;29;20039;-79
2023/01/16 11:39:21;;;;;;;2.78;0.70;;;;;;;6.14;100.00;97622.03;4920165;29;20028;-79
2023/01/16 11:41:50;;;;;;;0.98;0.60;;;;;;;6.19;100.00;97614.22;4955032;28;20389;-78
2023/01/16 11:47:05;;;;;;;1.25;0.60;;;;;;;6.07;100.00;97622.72;4959373;29;20031;-79
2023/01/16 11:49:39;;;;;;;4.05;1.30;;;;;;;6.11;100.00;97606.09;4939038;29;20035;-80
2023/01/16 11:52:04;;;;;;;1.13;0.55;;;;;;;6.24;100.00;97611.81;4957993;28;20498;-78
2023/01/16 11:54:33;;;;;;;20.67;0.93;;;;;;;6.29;100.00;97603.16;4951800;28;20027;-80
2023/01/16 11:57:04;;;;;;;2.25;1.30;;;;;;;6.32;100.00;97598.22;4944997;29;20031;-79
2023/01/16 11:59:41;;;;;;;0.40;0.40;;;;;;;6.26;100.00;97596.19;4963413;28;20039;-79
2023/01/16 12:02:28;;;;;;;1.48;0.77;;;;;;;6.32;100.00;97586.50;4959825;29;20036;-78
2023/01/16 12:08:20;;;;;;;1.77;0.80;;;;;;;6.37;100.00;97573.22;4954188;28;20094;-79
2023/01/16 12:10:48;;;;;;;;;;;;;;;6.41;100.00;97569.13;4961695;28;20449;-78
2023/01/16 12:16:20;;;;;;;1.48;0.70;;;;;;;6.22;100.00;97544.06;4945226;29;20095;-78
2023/01/16 12:18:58;;;;;;;0.88;0.63;;;;;;;6.21;100.00;97546.97;4937229;29;20039;-78
2023/01/16 12:21:49;;;;;;;0.95;0.40;;;;;;;6.46;100.00;97530.56;4935074;29;20406;-78
2023/01/16 12:24:29;;;;;;;0.40;0.40;;;;;;;6.48;100.00;97532.09;4957941;28;20044;-78
2023/01/16 12:27:10;;;;;;;1.20;0.50;;;;;;;6.50;100.00;97529.19;4959776;28;20039;-79
2023/01/16 12:29:48;;;;;;;0.75;0.47;;;;;;;6.43;100.00;97529.88;4935424;29;20039;-78
2023/01/16 12:32:35;;;;;;;0.80;0.40;;;;;;;6.59;100.00;97522.66;4924986;29;20031;-78
2023/01/16 12:35:23;;;;;;;0.52;0.30;;;;;;;6.73;100.00;97519.19;4945686;29;20055;-78
2023/01/16 12:38:12;;;;;;;0.57;0.30;;;;;;;6.69;100.00;97507.00;4939469;29;20028;-78
2023/01/16 12:43:57;;;;;;;1.42;0.38;;;;;;;6.87;100.00;97505.81;4955165;28;20035;-79